Homeland, California
Current Conditions -  °F | °C
As of 6:15 PM on Saturday 22 Nov 2014 (Local Time) from KF70 Reporting Station
Clear Clear  
Wind Chill: 59°   Ceiling: Unl
Heat Index: 59°   Visibility: 10mi
Dew Point: 52°   Wind: 7mph
Humidity: 77%   Direction: 190°S
Pressure: 30.05"   Gusts: NA
Location:  33.74°N, 117.11°W
Report Text: KF70 230215Z AUTO 19006KT 10SM CLR 15/11 A3005 RMK AO1
Loading
Personal Weather Stations






























Interactive Weather Map New forecast layout! Learn more

10-Day Weather Forecast

Advertisements
Track Severe Weather on mobile